Time;durP1;ratioP1;P1;durP2;ratioP2;P2;SDS_P1;SDS_P2;PMS_P1;PMS_P2;Temp;Humidity;BMP_temperature;BMP_pressure;BME280_temperature;BME280_humidity;BME280_pressure;Samples;Min_cycle;Max_cycle;Signal;HPM_P1;HPM_P2
2023/02/27 00:00:15;;;;;;;6.20;4.28;;;-1.60;99.90;;;;;;2072620;28;20049;-74
2023/02/27 00:01:16;;;;;;;9.65;4.50;;;-1.60;99.90;;;;;;2075589;28;20030;-76
2023/02/27 00:02:16;;;;;;;10.40;4.82;;;-1.60;99.90;;;;;;2073162;28;20036;-75
2023/02/27 00:03:17;;;;;;;8.82;4.40;;;-1.60;99.90;;;;;;2074015;28;20132;-76
2023/02/27 00:04:17;;;;;;;8.40;4.60;;;-1.60;99.90;;;;;;2074371;28;20105;-74
2023/02/27 00:05:19;;;;;;;7.35;4.15;;;-1.60;99.90;;;;;;2078834;28;20112;-76
2023/02/27 00:06:19;;;;;;;7.68;4.25;;;-1.60;99.90;;;;;;2076471;28;20055;-74
2023/02/27 00:07:24;;;;;;;7.18;4.22;;;-1.60;99.90;;;;;;2075045;28;20033;-76
2023/02/27 00:08:25;;;;;;;8.50;4.57;;;-1.60;99.90;;;;;;2073757;28;20029;-75
2023/02/27 00:09:26;;;;;;;8.50;4.35;;;-1.60;99.90;;;;;;2073809;28;20498;-75
2023/02/27 00:10:26;;;;;;;8.95;4.65;;;-1.60;99.90;;;;;;2076957;28;20038;-75
2023/02/27 00:11:27;;;;;;;7.57;4.70;;;-1.60;99.90;;;;;;2076567;28;20033;-75
2023/02/27 00:12:29;;;;;;;7.47;4.50;;;-1.60;99.90;;;;;;2075138;28;20025;-75
2023/02/27 00:13:30;;;;;;;8.00;4.20;;;-1.60;99.90;;;;;;2074118;28;20040;-73
2023/02/27 00:14:30;;;;;;;8.02;4.40;;;-1.60;99.90;;;;;;2078279;28;20412;-74
2023/02/27 00:15:31;;;;;;;6.88;4.70;;;-1.60;99.90;;;;;;2095512;28;20134;-75
2023/02/27 00:16:33;;;;;;;8.43;4.75;;;-1.60;99.90;;;;;;2071983;28;20086;-75
2023/02/27 00:17:34;;;;;;;7.07;4.70;;;-1.60;99.90;;;;;;2081054;28;20048;-76
2023/02/27 00:18:34;;;;;;;8.20;4.50;;;-1.60;99.90;;;;;;2075464;28;20430;-75
2023/02/27 00:19:35;;;;;;;8.18;4.57;;;-1.70;99.90;;;;;;2077442;28;20189;-76
2023/02/27 00:20:36;;;;;;;7.10;4.30;;;-1.70;99.90;;;;;;2073401;28;20048;-75
2023/02/27 00:21:37;;;;;;;8.00;4.30;;;-1.70;99.90;;;;;;2072147;28;20121;-75
2023/02/27 00:22:39;;;;;;;6.85;4.38;;;-1.70;99.90;;;;;;2074293;28;20512;-75
2023/02/27 00:23:40;;;;;;;7.88;4.20;;;-1.70;99.90;;;;;;2081204;28;20072;-76
2023/02/27 00:24:40;;;;;;;8.15;4.53;;;-1.70;99.90;;;;;;2074238;28;20441;-76
2023/02/27 00:25:41;;;;;;;7.43;4.50;;;-1.70;99.90;;;;;;2095946;28;20036;-76
2023/02/27 00:26:42;;;;;;;7.22;4.30;;;-1.70;99.90;;;;;;2083529;28;20032;-75
2023/02/27 00:27:43;;;;;;;7.30;4.60;;;-1.70;99.90;;;;;;2077848;28;20022;-76
2023/02/27 00:28:43;;;;;;;6.93;4.15;;;-1.70;99.90;;;;;;2074469;28;20397;-75
2023/02/27 00:29:44;;;;;;;8.02;4.00;;;-1.80;99.90;;;;;;2084427;28;20024;-76
2023/02/27 00:30:45;;;;;;;6.07;4.15;;;-1.80;99.90;;;;;;2080994;28;20083;-75
2023/02/27 00:31:46;;;;;;;7.95;4.60;;;-1.80;99.90;;;;;;2080605;28;20536;-76
2023/02/27 00:32:46;;;;;;;7.38;4.05;;;-1.80;99.90;;;;;;2071323;28;20492;-76
2023/02/27 00:33:47;;;;;;;6.13;3.67;;;-1.90;99.90;;;;;;2079715;28;20515;-75
2023/02/27 00:34:48;;;;;;;9.02;4.50;;;-1.90;99.90;;;;;;2076211;28;20100;-75
2023/02/27 00:35:56;;;;;;;7.68;4.30;;;-1.90;99.90;;;;;;2089892;28;20090;-76
2023/02/27 00:36:57;;;;;;;7.55;4.35;;;-1.90;99.90;;;;;;2080021;28;20123;-76
2023/02/27 00:37:58;;;;;;;8.27;3.92;;;-1.90;99.90;;;;;;2085516;28;20685;-76
2023/02/27 00:38:58;;;;;;;6.93;4.03;;;-1.90;99.90;;;;;;2091117;28;20518;-75
2023/02/27 00:39:59;;;;;;;7.38;4.15;;;-1.90;99.90;;;;;;2085226;28;20025;-76
2023/02/27 00:41:00;;;;;;;6.28;3.92;;;-1.90;99.90;;;;;;2067810;28;20031;-75
2023/02/27 00:42:01;;;;;;;6.57;4.00;;;-1.90;99.90;;;;;;2077246;28;20562;-76
2023/02/27 00:43:02;;;;;;;7.38;3.95;;;-1.90;99.90;;;;;;2071853;28;20451;-75
2023/02/27 00:44:03;;;;;;;7.25;4.07;;;-1.90;99.90;;;;;;2084138;28;20021;-76
2023/02/27 00:45:05;;;;;;;5.72;3.75;;;-2.00;99.90;;;;;;2081197;28;20302;-76
2023/02/27 00:46:06;;;;;;;6.13;3.90;;;-2.00;99.90;;;;;;2082187;28;20594;-75
2023/02/27 00:47:07;;;;;;;5.78;3.90;;;-2.00;99.90;;;;;;2092553;28;20024;-75
2023/02/27 00:48:07;;;;;;;7.03;3.70;;;-2.00;99.90;;;;;;2075485;28;20644;-74
2023/02/27 00:49:08;;;;;;;6.95;3.80;;;-2.00;99.90;;;;;;2076408;28;20526;-74
2023/02/27 00:50:09;;;;;;;6.70;3.78;;;-2.00;99.90;;;;;;2076724;28;20524;-74
2023/02/27 00:51:10;;;;;;;6.72;4.18;;;-2.10;99.90;;;;;;2079284;28;20064;-76
2023/02/27 00:52:11;;;;;;;8.70;4.50;;;-2.10;99.90;;;;;;2086510;28;20033;-76
2023/02/27 00:53:11;;;;;;;7.55;4.40;;;-2.10;99.90;;;;;;2065456;28;20025;-75
2023/02/27 00:54:12;;;;;;;7.80;4.40;;;-2.10;99.90;;;;;;2081691;28;20317;-74
2023/02/27 00:55:12;;;;;;;9.32;4.88;;;-2.10;99.90;;;;;;2086929;28;20479;-75
2023/02/27 00:56:13;;;;;;;8.63;4.47;;;-2.10;99.90;;;;;;2087696;28;20548;-75
2023/02/27 00:57:14;;;;;;;6.40;4.10;;;-2.20;99.90;;;;;;2073739;28;20444;-75
2023/02/27 00:58:14;;;;;;;7.63;4.72;;;-2.20;99.90;;;;;;2070140;28;20037;-75
2023/02/27 00:59:15;;;;;;;9.38;5.03;;;-2.20;99.90;;;;;;2085330;28;20488;-75
2023/02/27 01:00:16;;;;;;;10.38;5.13;;;-2.20;99.90;;;;;;2085015;28;20032;-75
2023/02/27 01:01:16;;;;;;;11.63;5.50;;;-2.20;99.90;;;;;;2090366;28;20039;-74
2023/02/27 01:02:17;;;;;;;15.07;6.93;;;-2.20;99.90;;;;;;2085155;28;20569;-75
2023/02/27 01:03:18;;;;;;;15.32;7.22;;;-2.20;99.90;;;;;;2072492;28;20033;-74
2023/02/27 01:04:18;;;;;;;16.35;8.32;;;-2.20;99.90;;;;;;2067587;28;20482;-75
2023/02/27 01:05:19;;;;;;;16.65;7.45;;;-2.20;99.90;;;;;;2078634;28;20025;-74
2023/02/27 01:06:20;;;;;;;17.10;8.02;;;-2.20;99.90;;;;;;2079121;28;20053;-74
2023/02/27 01:07:21;;;;;;;17.25;8.13;;;-2.20;99.90;;;;;;2076246;28;20649;-75
2023/02/27 01:08:22;;;;;;;16.85;7.22;;;-2.20;99.90;;;;;;2075142;28;20096;-76
2023/02/27 01:09:23;;;;;;;15.80;7.22;;;-2.30;99.90;;;;;;2078018;28;20020;-78
2023/02/27 01:10:25;;;;;;;14.73;7.05;;;-2.30;99.90;;;;;;2074504;28;20076;-75
2023/02/27 01:11:26;;;;;;;12.05;6.38;;;-2.30;99.90;;;;;;2079675;28;20185;-75
2023/02/27 01:12:27;;;;;;;13.48;6.00;;;-2.30;99.90;;;;;;2084710;28;20312;-76
2023/02/27 01:13:27;;;;;;;11.18;5.97;;;-2.30;99.90;;;;;;2081893;28;20131;-77
2023/02/27 01:14:28;;;;;;;11.25;5.50;;;-2.30;99.90;;;;;;2067975;28;20130;-76
2023/02/27 01:15:29;;;;;;;12.32;5.28;;;-2.30;99.90;;;;;;2070390;28;20054;-75
2023/02/27 01:16:29;;;;;;;10.48;5.60;;;-2.40;99.90;;;;;;2077178;28;20053;-76
2023/02/27 01:17:30;;;;;;;9.95;5.20;;;-2.40;99.90;;;;;;2086782;28;20139;-74
2023/02/27 01:18:31;;;;;;;9.43;5.45;;;-2.40;99.90;;;;;;2078427;28;20099;-74
2023/02/27 01:19:31;;;;;;;10.38;5.15;;;-2.40;99.90;;;;;;2084041;28;20095;-74
2023/02/27 01:20:32;;;;;;;8.52;5.22;;;-2.40;99.90;;;;;;2078030;28;20045;-74
2023/02/27 01:21:32;;;;;;;9.80;5.20;;;-2.40;99.90;;;;;;2069113;28;20033;-74
2023/02/27 01:22:33;;;;;;;8.90;5.40;;;-2.40;99.90;;;;;;2073131;28;20033;-74
2023/02/27 01:23:34;;;;;;;8.07;5.10;;;-2.40;99.90;;;;;;2080905;28;20123;-74
2023/02/27 01:24:35;;;;;;;10.38;5.43;;;-2.40;99.90;;;;;;2074141;28;20025;-75
2023/02/27 01:25:35;;;;;;;11.70;6.15;;;-2.40;99.90;;;;;;2081158;28;20516;-74
2023/02/27 01:26:36;;;;;;;11.15;6.43;;;-2.40;99.90;;;;;;2072350;28;20050;-75
2023/02/27 01:27:36;;;;;;;13.35;7.95;;;-2.40;99.90;;;;;;2073813;28;20455;-74
2023/02/27 01:28:38;;;;;;;15.25;9.23;;;-2.40;99.90;;;;;;2077857;28;20024;-74
2023/02/27 01:29:39;;;;;;;16.30;9.20;;;-2.50;99.90;;;;;;2080400;28;20236;-73
2023/02/27 01:30:41;;;;;;;15.95;9.65;;;-2.50;99.90;;;;;;2074625;28;20033;-74
2023/02/27 01:31:41;;;;;;;14.20;8.80;;;-2.50;99.90;;;;;;2078516;28;20025;-75
2023/02/27 01:32:42;;;;;;;14.50;8.93;;;-2.50;99.90;;;;;;2074689;28;20470;-75
2023/02/27 01:33:44;;;;;;;13.52;7.72;;;-2.50;99.90;;;;;;2081346;28;20036;-75
2023/02/27 01:34:45;;;;;;;14.15;8.20;;;-2.50;99.90;;;;;;2072652;28;20508;-75
2023/02/27 01:35:46;;;;;;;13.10;7.63;;;-2.50;99.90;;;;;;2077021;28;20037;-75
2023/02/27 01:36:46;;;;;;;13.18;7.78;;;-2.50;99.90;;;;;;2075363;28;20034;-75
2023/02/27 01:37:49;;;;;;;12.02;6.85;;;-2.50;99.90;;;;;;2081406;28;20695;-76
2023/02/27 01:38:50;;;;;;;13.90;7.20;;;-2.50;99.90;;;;;;2091156;28;20146;-75
2023/02/27 01:39:50;;;;;;;16.35;7.07;;;-2.50;99.90;;;;;;2086637;28;20082;-75
2023/02/27 01:40:52;;;;;;;11.90;6.30;;;-2.50;99.90;;;;;;2082127;28;20032;-76
2023/02/27 01:41:52;;;;;;;8.90;5.80;;;-2.50;99.90;;;;;;2081491;28;20028;-76
2023/02/27 01:42:54;;;;;;;9.48;6.07;;;-2.50;99.90;;;;;;2081660;28;20062;-76
2023/02/27 01:44:04;;;;;;;10.90;5.82;;;-2.50;99.90;;;;;;2088016;28;20028;-75
2023/02/27 01:45:11;;;;;;;11.02;6.00;;;-2.50;99.90;;;;;;2078228;28;20277;-75
2023/02/27 01:46:11;;;;;;;10.75;5.97;;;-2.50;99.90;;;;;;2074944;28;20400;-76
2023/02/27 01:47:12;;;;;;;9.15;5.72;;;-2.50;99.90;;;;;;2066815;28;20212;-75
2023/02/27 01:48:23;;;;;;;11.05;5.95;;;-2.50;99.90;;;;;;2074719;28;20033;-75
2023/02/27 01:49:29;;;;;;;10.43;5.60;;;-2.50;99.90;;;;;;2071511;28;20029;-75
2023/02/27 01:50:30;;;;;;;10.23;5.43;;;-2.50;99.90;;;;;;2076971;28;20106;-75
2023/02/27 01:51:35;;;;;;;10.65;5.53;;;-2.60;99.90;;;;;;2077691;28;20467;-75
2023/02/27 01:52:37;;;;;;;9.30;5.53;;;-2.60;99.90;;;;;;2075734;28;20404;-75
2023/02/27 01:53:40;;;;;;;10.10;5.57;;;-2.50;99.90;;;;;;2088802;28;20040;-75
2023/02/27 01:54:42;;;;;;;9.45;5.70;;;-2.60;99.90;;;;;;2074081;28;20034;-74
2023/02/27 01:55:42;;;;;;;9.80;5.55;;;-2.60;99.90;;;;;;2095964;28;20032;-76
2023/02/27 01:56:43;;;;;;;10.02;5.55;;;-2.60;99.90;;;;;;2081627;28;21107;-75
2023/02/27 01:57:45;;;;;;;9.02;5.43;;;-2.60;99.90;;;;;;2083172;28;20029;-76
2023/02/27 01:58:48;;;;;;;9.70;5.40;;;-2.60;99.90;;;;;;2081510;28;20036;-75
2023/02/27 01:59:49;;;;;;;8.45;5.20;;;-2.60;99.90;;;;;;2082399;28;20405;-74
2023/02/27 02:00:50;;;;;;;9.20;5.43;;;-2.60;99.90;;;;;;2096400;28;20082;-75
2023/02/27 02:01:52;;;;;;;10.27;5.63;;;-2.60;99.90;;;;;;2081908;28;20025;-75
2023/02/27 02:03:11;;;;;;;10.05;5.53;;;-2.60;99.90;;;;;;2076921;28;20447;-74
2023/02/27 02:04:34;;;;;;;9.30;5.70;;;-2.60;99.90;;;;;;2079695;28;20504;-74
2023/02/27 02:05:34;;;;;;;11.13;5.80;;;-2.60;99.90;;;;;;2088108;28;20035;-75
2023/02/27 02:06:38;;;;;;;10.45;5.88;;;-2.70;99.90;;;;;;2094778;28;20042;-75
2023/02/27 02:07:40;;;;;;;9.32;5.75;;;-2.60;99.90;;;;;;2092126;28;20470;-75
2023/02/27 02:08:45;;;;;;;11.10;5.90;;;-2.60;99.90;;;;;;2090045;28;20066;-76
2023/02/27 02:09:51;;;;;;;10.85;5.93;;;-2.60;99.90;;;;;;2076138;28;20064;-74
2023/02/27 02:10:54;;;;;;;9.40;5.90;;;-2.60;99.90;;;;;;2077312;28;20036;-74
2023/02/27 02:11:56;;;;;;;11.05;6.18;;;-2.60;99.90;;;;;;2078048;28;20025;-74
2023/02/27 02:12:57;;;;;;;11.95;6.50;;;-2.60;99.90;;;;;;2081578;28;20107;-75
2023/02/27 02:14:01;;;;;;;10.63;6.00;;;-2.70;99.90;;;;;;2079063;28;20248;-75
2023/02/27 02:15:03;;;;;;;11.43;6.22;;;-2.70;99.90;;;;;;2067791;28;20509;-75
2023/02/27 02:16:23;;;;;;;10.57;6.03;;;-2.70;99.90;;;;;;2072821;28;20641;-75
2023/02/27 02:17:26;;;;;;;10.80;5.80;;;-2.70;99.90;;;;;;2082611;28;20051;-75
2023/02/27 02:18:59;;;;;;;10.18;5.93;;;-2.70;99.90;;;;;;2078904;28;20146;-75
2023/02/27 02:20:38;;;;;;;12.05;6.32;;;-2.70;99.90;;;;;;2056102;28;20081;-75
2023/02/27 02:22:04;;;;;;;10.20;5.80;;;-2.70;99.90;;;;;;2095742;28;20040;-75
2023/02/27 02:23:04;;;;;;;9.52;5.85;;;-2.80;99.90;;;;;;2089794;28;20290;-75
2023/02/27 02:24:13;;;;;;;10.57;5.80;;;-2.80;99.90;;;;;;2078052;28;20025;-76
2023/02/27 02:25:45;;;;;;;11.32;5.93;;;-2.80;99.90;;;;;;2078831;28;20507;-75
2023/02/27 02:26:58;;;;;;;10.40;6.07;;;-2.80;99.90;;;;;;2082486;28;20031;-73
2023/02/27 02:28:37;;;;;;;10.40;5.95;;;-2.80;99.90;;;;;;2076525;28;20021;-79
2023/02/27 02:29:56;;;;;;;9.25;5.95;;;-2.80;99.90;;;;;;2055584;28;20050;-77
2023/02/27 02:31:21;;;;;;;9.50;5.97;;;-2.80;99.90;;;;;;2080070;28;20047;-74
2023/02/27 02:32:45;;;;;;;12.50;6.78;;;-2.80;99.90;;;;;;2067753;28;20017;-73
2023/02/27 02:34:24;;;;;;;10.23;6.55;;;-2.90;99.90;;;;;;2084118;28;20028;-73
2023/02/27 02:36:10;;;;;;;11.70;6.80;;;-2.90;99.90;;;;;;2076151;28;20033;-74
2023/02/27 02:37:37;;;;;;;12.85;7.05;;;-2.90;99.90;;;;;;2078414;28;20040;-73
2023/02/27 02:38:40;;;;;;;12.18;6.65;;;-2.90;99.90;;;;;;2076785;28;20546;-74
2023/02/27 02:39:56;;;;;;;12.20;6.90;;;-2.90;99.90;;;;;;2083685;28;20216;-72
2023/02/27 02:41:23;;;;;;;11.68;6.85;;;-3.00;99.90;;;;;;2099942;28;20335;-74
2023/02/27 02:42:31;;;;;;;12.73;7.15;;;-2.90;99.90;;;;;;2080002;28;20017;-73
2023/02/27 02:43:32;;;;;;;12.15;6.72;;;-3.00;99.90;;;;;;2088093;28;20091;-73
2023/02/27 02:44:51;;;;;;;11.43;6.10;;;-3.00;99.90;;;;;;2087571;28;20132;-74
2023/02/27 02:46:12;;;;;;;10.55;6.10;;;-3.00;99.90;;;;;;2085744;28;20129;-73
2023/02/27 02:47:21;;;;;;;;;;;-3.00;99.90;;;;;;2092076;28;20028;-74
2023/02/27 02:48:41;;;;;;;10.98;5.80;;;-3.00;99.90;;;;;;2075821;28;19913;-74
2023/02/27 02:49:56;;;;;;;8.25;5.47;;;-3.00;99.90;;;;;;2085379;28;20586;-74
2023/02/27 02:51:15;;;;;;;12.75;6.00;;;-3.00;99.90;;;;;;2084360;28;20079;-74
2023/02/27 02:52:30;;;;;;;11.93;6.00;;;-3.10;99.90;;;;;;2090107;28;20021;-73
2023/02/27 02:53:57;;;;;;;10.27;5.72;;;-3.00;99.90;;;;;;2094814;28;20112;-73
2023/02/27 02:55:08;;;;;;;9.25;6.07;;;-3.10;99.90;;;;;;2081119;28;20029;-73
2023/02/27 02:56:31;;;;;;;11.00;6.07;;;-3.10;99.90;;;;;;2076562;28;20024;-75
2023/02/27 02:57:42;;;;;;;10.82;6.35;;;-3.10;99.90;;;;;;2089642;28;20029;-72
2023/02/27 02:58:58;;;;;;;14.10;7.28;;;-3.10;99.90;;;;;;2081526;28;20053;-73
2023/02/27 03:00:06;;;;;;;16.08;7.32;;;-3.00;99.90;;;;;;2079775;28;20040;-72
2023/02/27 03:01:14;;;;;;;16.20;7.88;;;-3.00;99.90;;;;;;2086971;28;20060;-73
2023/02/27 03:02:20;;;;;;;16.38;7.50;;;-3.00;99.90;;;;;;2072154;28;20047;-72
2023/02/27 03:03:26;;;;;;;13.80;7.18;;;-2.90;99.90;;;;;;2069348;28;20660;-72
2023/02/27 03:05:11;;;;;;;12.98;7.03;;;-2.90;99.90;;;;;;2088491;28;20495;-73
2023/02/27 03:06:19;;;;;;;12.52;6.28;;;-2.80;99.90;;;;;;2048307;28;20035;-73
2023/02/27 03:07:32;;;;;;;11.95;6.43;;;-2.80;99.90;;;;;;2056482;28;20023;-73
2023/02/27 03:08:39;;;;;;;16.10;7.70;;;-2.80;99.90;;;;;;2054382;28;20429;-74
2023/02/27 03:09:52;;;;;;;20.45;8.00;;;-2.70;99.90;;;;;;2052501;28;20038;-72
2023/02/27 03:10:58;;;;;;;19.17;8.95;;;-2.70;99.90;;;;;;2055923;28;20208;-73
2023/02/27 03:12:03;;;;;;;19.60;8.45;;;-2.60;99.90;;;;;;2077283;28;20043;-72
2023/02/27 03:13:10;;;;;;;20.02;8.13;;;-2.60;99.90;;;;;;2083866;28;20081;-73
2023/02/27 03:14:32;;;;;;;17.08;8.25;;;-2.50;99.90;;;;;;2081999;28;20115;-72
2023/02/27 03:15:43;;;;;;;16.73;7.85;;;-2.50;99.90;;;;;;2089048;28;20081;-73
2023/02/27 03:16:48;;;;;;;17.20;7.28;;;-2.40;99.90;;;;;;2099129;28;20482;-73
2023/02/27 03:17:59;;;;;;;14.40;7.47;;;-2.40;99.90;;;;;;2082232;28;20527;-73
2023/02/27 03:19:17;;;;;;;11.85;6.60;;;-2.40;99.90;;;;;;2074940;28;20478;-73
2023/02/27 03:20:23;;;;;;;14.65;6.47;;;-2.30;99.90;;;;;;2077015;28;20033;-74
2023/02/27 03:21:34;;;;;;;12.45;6.40;;;-2.30;99.90;;;;;;2072833;28;20029;-74
2023/02/27 03:22:40;;;;;;;12.38;6.38;;;-2.30;99.90;;;;;;2086885;28;20037;-73
2023/02/27 03:23:46;;;;;;;15.30;7.47;;;-2.30;99.90;;;;;;2095891;28;20078;-74
2023/02/27 03:24:50;;;;;;;19.40;8.43;;;-2.20;99.90;;;;;;2079935;28;20497;-74
2023/02/27 03:25:53;;;;;;;41.75;13.48;;;-2.20;99.90;;;;;;2079533;28;20031;-73
2023/02/27 03:26:58;;;;;;;41.97;13.60;;;-2.20;99.90;;;;;;2084600;28;20021;-74
2023/02/27 03:28:06;;;;;;;32.15;11.55;;;-2.10;99.90;;;;;;2075885;28;20023;-73
2023/02/27 03:29:10;;;;;;;30.60;10.80;;;-2.10;99.90;;;;;;2082683;28;20108;-73
2023/02/27 03:30:46;;;;;;;24.85;10.10;;;-2.20;99.90;;;;;;2080346;28;20041;-74
2023/02/27 03:31:57;;;;;;;17.98;8.10;;;-2.10;99.90;;;;;;2073479;28;20033;-72
2023/02/27 03:33:13;;;;;;;18.27;8.07;;;-2.10;99.90;;;;;;2081115;28;20021;-73
2023/02/27 03:34:37;;;;;;;15.30;7.25;;;-2.10;99.90;;;;;;2089433;28;20484;-73
2023/02/27 03:36:16;;;;;;;14.20;6.95;;;-2.10;99.90;;;;;;2084923;28;20530;-73
2023/02/27 03:37:34;;;;;;;16.23;7.30;;;-2.10;99.90;;;;;;2077823;28;20636;-73
2023/02/27 03:38:53;;;;;;;26.42;9.38;;;-2.10;99.90;;;;;;2091894;28;20495;-72
2023/02/27 03:40:03;;;;;;;24.17;9.63;;;-2.10;99.90;;;;;;2086349;28;20035;-73
2023/02/27 03:41:09;;;;;;;25.10;9.48;;;-2.10;99.90;;;;;;2084530;28;20029;-73
2023/02/27 03:42:37;;;;;;;18.42;8.00;;;-2.10;99.90;;;;;;2072601;28;20120;-73
2023/02/27 03:44:04;;;;;;;16.15;6.90;;;-2.10;99.90;;;;;;2084924;28;20513;-79
2023/02/27 03:45:20;;;;;;;17.17;6.90;;;-2.00;99.90;;;;;;2085577;28;20360;-79
2023/02/27 03:46:23;;;;;;;11.75;6.53;;;-2.00;99.90;;;;;;2081264;28;20066;-79
2023/02/27 03:47:25;;;;;;;14.45;6.45;;;-2.00;99.90;;;;;;2075389;28;20666;-79
2023/02/27 03:48:26;;;;;;;12.50;6.20;;;-2.00;99.90;;;;;;2079884;28;20017;-78
2023/02/27 03:49:28;;;;;;;10.32;6.05;;;-2.00;99.90;;;;;;2079405;28;20029;-78
2023/02/27 03:50:28;;;;;;;10.20;5.82;;;-2.00;99.90;;;;;;2088753;28;20566;-79
2023/02/27 03:51:30;;;;;;;10.07;6.18;;;-2.00;99.90;;;;;;2096125;28;20474;-77
2023/02/27 03:52:31;;;;;;;11.15;6.18;;;-1.90;99.90;;;;;;2091367;28;20067;-77
2023/02/27 03:53:44;;;;;;;9.88;6.30;;;-2.00;99.90;;;;;;2079925;28;20132;-82
2023/02/27 03:54:52;;;;;;;10.95;6.30;;;-2.00;99.90;;;;;;2079926;28;20112;-82
2023/02/27 03:55:56;;;;;;;10.57;6.20;;;-2.00;99.90;;;;;;2080650;28;20041;-82
2023/02/27 03:57:06;;;;;;;11.48;6.10;;;-2.00;99.90;;;;;;2086371;28;20039;-82
2023/02/27 03:58:07;;;;;;;10.50;6.25;;;-2.00;99.90;;;;;;2091447;28;20032;-82
2023/02/27 03:59:07;;;;;;;11.18;6.10;;;-2.00;99.90;;;;;;2078613;28;20519;-83
2023/02/27 04:00:15;;;;;;;12.45;6.22;;;-1.90;99.90;;;;;;2088393;28;20052;-83
2023/02/27 04:01:18;;;;;;;12.32;6.50;;;-1.90;99.90;;;;;;2084204;28;20750;-83
2023/02/27 04:02:19;;;;;;;10.30;5.93;;;-1.90;99.90;;;;;;2079211;28;20524;-83
2023/02/27 04:03:20;;;;;;;9.25;6.22;;;-1.90;99.90;;;;;;2072186;28;20045;-82
2023/02/27 04:04:21;;;;;;;10.88;6.20;;;-1.90;99.90;;;;;;2077821;28;20442;-81
2023/02/27 04:05:40;;;;;;;11.70;6.47;;;-1.90;99.90;;;;;;2097741;28;20515;-83
2023/02/27 04:08:31;;;;;;;10.25;6.30;;;-1.90;99.90;;;;;;2072338;28;20112;-82
2023/02/27 04:09:49;;;;;;;10.80;6.30;;;-1.80;99.90;;;;;;2075523;28;20338;-82
2023/02/27 04:10:52;;;;;;;12.65;6.65;;;-1.80;99.90;;;;;;2091247;28;20570;-83
2023/02/27 04:12:25;;;;;;;11.02;6.45;;;-1.80;99.90;;;;;;2092965;28;20131;-82
2023/02/27 04:13:58;;;;;;;12.50;6.70;;;-1.80;99.90;;;;;;2074779;28;20099;-82
2023/02/27 04:15:01;;;;;;;11.88;6.60;;;-1.90;99.90;;;;;;2066926;28;20052;-82
2023/02/27 04:16:15;;;;;;;10.93;6.45;;;-1.80;99.90;;;;;;2073426;28;20052;-81
2023/02/27 04:17:27;;;;;;;12.30;7.18;;;-1.80;99.90;;;;;;2087089;28;20041;-81
2023/02/27 04:19:14;;;;;;;12.90;6.57;;;-1.80;99.90;;;;;;2101380;28;20420;-81
2023/02/27 04:20:34;;;;;;;11.18;5.97;;;-1.80;99.90;;;;;;2076216;28;20021;-81
2023/02/27 04:21:42;;;;;;;12.07;6.50;;;-1.80;99.90;;;;;;2077650;28;20131;-84
2023/02/27 04:23:03;;;;;;;11.55;6.68;;;-1.80;99.90;;;;;;2075735;28;20422;-81
2023/02/27 04:24:11;;;;;;;;;;;-1.80;99.90;;;;;;2082688;28;20039;-81
2023/02/27 04:25:19;;;;;;;11.70;6.15;;;-1.80;99.90;;;;;;2092015;28;19923;-82
2023/02/27 04:26:39;;;;;;;10.18;6.15;;;-1.70;99.90;;;;;;2083183;28;20100;-82
2023/02/27 04:27:54;;;;;;;8.48;5.80;;;-1.70;99.90;;;;;;2076921;28;20486;-83
2023/02/27 04:29:03;;;;;;;12.27;6.13;;;-1.70;99.90;;;;;;2074280;28;20041;-82
2023/02/27 04:30:16;;;;;;;10.55;5.60;;;-1.70;99.90;;;;;;2087578;28;20136;-83
2023/02/27 04:31:30;;;;;;;9.15;5.63;;;-1.70;99.90;;;;;;2082644;28;20112;-82
2023/02/27 04:32:48;;;;;;;10.98;5.97;;;-1.70;99.90;;;;;;2079271;28;20123;-81
2023/02/27 04:34:17;;;;;;;9.60;5.80;;;-1.70;99.90;;;;;;2072252;28;20033;-82
2023/02/27 04:35:55;;;;;;;9.43;6.07;;;-1.70;99.90;;;;;;2084528;28;20025;-81
2023/02/27 04:37:03;;;;;;;10.27;6.25;;;-1.70;99.90;;;;;;2064664;28;20574;-81
2023/02/27 04:38:21;;;;;;;11.05;6.07;;;-1.70;99.90;;;;;;2069926;28;20213;-81
2023/02/27 04:39:27;;;;;;;9.48;5.97;;;-1.60;99.90;;;;;;2079406;28;20462;-81
2023/02/27 04:41:02;;;;;;;11.35;6.20;;;-1.70;99.90;;;;;;2082243;28;20514;-81
2023/02/27 04:42:08;;;;;;;9.38;5.97;;;-1.60;99.90;;;;;;2073285;28;20026;-81
2023/02/27 04:43:12;;;;;;;9.70;6.30;;;-1.60;99.90;;;;;;2082252;28;20112;-82
2023/02/27 04:44:16;;;;;;;11.02;6.60;;;-1.60;99.90;;;;;;2080266;28;20066;-83
2023/02/27 04:45:20;;;;;;;9.77;6.10;;;-1.60;99.90;;;;;;2076319;28;20114;-82
2023/02/27 04:46:26;;;;;;;9.13;6.10;;;-1.60;99.90;;;;;;2075121;28;20013;-83
2023/02/27 04:47:32;;;;;;;9.25;5.72;;;-1.60;99.90;;;;;;2077779;28;20482;-82
2023/02/27 04:48:37;;;;;;;9.52;6.00;;;-1.50;99.90;;;;;;2073745;28;20077;-82
2023/02/27 04:49:50;;;;;;;9.70;5.57;;;-1.50;99.90;;;;;;2086330;28;20037;-82
2023/02/27 04:51:16;;;;;;;9.50;5.40;;;-1.50;99.90;;;;;;2082647;28;20033;-83
2023/02/27 04:52:26;;;;;;;7.72;4.88;;;-1.50;99.90;;;;;;2074877;28;20864;-81
2023/02/27 04:53:46;;;;;;;8.38;5.57;;;-1.50;99.90;;;;;;2076588;28;20582;-82
2023/02/27 04:54:55;;;;;;;9.23;5.53;;;-1.50;99.90;;;;;;2083646;28;20042;-81
2023/02/27 04:56:07;;;;;;;10.07;5.68;;;-1.50;99.90;;;;;;2084173;28;20031;-81
2023/02/27 04:57:17;;;;;;;9.73;5.30;;;-1.50;99.90;;;;;;2079662;28;20029;-81
2023/02/27 04:58:23;;;;;;;10.60;5.85;;;-1.50;99.90;;;;;;2077398;28;20031;-80
2023/02/27 04:59:27;;;;;;;9.32;5.50;;;-1.50;99.90;;;;;;2076116;28;20035;-83
2023/02/27 05:00:30;;;;;;;9.45;5.80;;;-1.40;99.90;;;;;;2071621;28;20488;-83
2023/02/27 05:01:37;;;;;;;10.18;5.95;;;-1.40;99.90;;;;;;2081141;28;20033;-81
2023/02/27 05:02:45;;;;;;;8.20;5.60;;;-1.40;99.90;;;;;;2086396;28;20086;-80
2023/02/27 05:03:50;;;;;;;9.18;6.05;;;-1.40;99.90;;;;;;2081750;28;20460;-76
2023/02/27 05:04:56;;;;;;;10.65;6.05;;;-1.40;99.90;;;;;;2076825;28;20530;-83
2023/02/27 05:06:00;;;;;;;11.35;6.53;;;-1.40;99.90;;;;;;2074683;28;20084;-81
2023/02/27 05:07:04;;;;;;;12.50;6.32;;;-1.40;99.90;;;;;;2075963;28;20029;-83
2023/02/27 05:08:12;;;;;;;10.27;6.15;;;-1.40;99.90;;;;;;2085430;28;20488;-81
2023/02/27 05:09:22;;;;;;;11.70;6.75;;;-1.30;99.90;;;;;;2084329;28;20029;-81
2023/02/27 05:10:33;;;;;;;11.40;7.22;;;-1.30;99.90;;;;;;2085186;28;20479;-81
2023/02/27 05:11:49;;;;;;;14.13;6.88;;;-1.30;99.90;;;;;;2093981;28;20388;-82
2023/02/27 05:12:57;;;;;;;13.73;6.93;;;-1.30;99.90;;;;;;2074762;28;20033;-82
2023/02/27 05:14:05;;;;;;;12.93;7.03;;;-1.30;99.90;;;;;;2088729;28;20567;-82
2023/02/27 05:15:11;;;;;;;11.98;7.43;;;-1.30;99.90;;;;;;2091009;28;20503;-82
2023/02/27 05:16:31;;;;;;;14.15;7.85;;;-1.40;99.90;;;;;;2077703;28;20462;-81
2023/02/27 05:17:45;;;;;;;12.73;7.10;;;-1.40;99.90;;;;;;2076036;28;20063;-80
2023/02/27 05:18:46;;;;;;;13.40;7.00;;;-1.50;99.90;;;;;;2075847;28;20036;-82
2023/02/27 05:19:47;;;;;;;13.20;6.53;;;-1.50;99.90;;;;;;2078824;28;20029;-81
2023/02/27 05:21:19;;;;;;;10.00;6.18;;;-1.50;99.90;;;;;;2078941;28;20119;-81
2023/02/27 05:22:42;;;;;;;11.00;6.72;;;-1.50;99.90;;;;;;2075307;28;20055;-82
2023/02/27 05:24:04;;;;;;;10.60;6.28;;;-1.50;99.90;;;;;;2089131;28;20495;-82
2023/02/27 05:25:25;;;;;;;11.57;6.13;;;-1.50;99.90;;;;;;2079540;28;20460;-80
2023/02/27 05:26:49;;;;;;;11.88;6.35;;;-1.50;99.90;;;;;;2068278;28;20485;-81
2023/02/27 05:28:06;;;;;;;10.57;5.70;;;-1.50;99.90;;;;;;2071144;28;20032;-81
2023/02/27 05:29:16;;;;;;;9.80;5.75;;;-1.50;99.90;;;;;;2081050;28;20082;-82
2023/02/27 05:30:25;;;;;;;9.63;5.60;;;-1.60;99.90;;;;;;2079244;28;20049;-83
2023/02/27 05:32:01;;;;;;;9.25;5.55;;;-1.50;99.90;;;;;;2076363;28;20021;-83
2023/02/27 05:33:29;;;;;;;8.40;5.40;;;-1.50;99.90;;;;;;2087160;28;20075;-81
2023/02/27 05:34:38;;;;;;;14.07;5.78;;;-1.60;99.90;;;;;;2079517;28;20041;-81
2023/02/27 05:36:06;;;;;;;15.65;5.95;;;-1.60;99.90;;;;;;2071489;28;20052;-83
2023/02/27 05:37:13;;;;;;;18.10;5.72;;;-1.60;99.90;;;;;;2073371;28;20029;-83
2023/02/27 05:38:26;;;;;;;15.63;6.07;;;-1.60;99.90;;;;;;2073224;28;20135;-83
2023/02/27 05:39:30;;;;;;;11.68;6.00;;;-1.60;99.90;;;;;;2089719;28;20074;-84
2023/02/27 05:40:38;;;;;;;14.57;5.57;;;-1.60;99.90;;;;;;2090947;28;20024;-83
2023/02/27 05:42:02;;;;;;;14.38;5.95;;;-1.60;99.90;;;;;;2077781;28;20041;-83
2023/02/27 05:43:20;;;;;;;13.00;6.15;;;-1.60;99.90;;;;;;2079671;28;20491;-83
2023/02/27 05:44:26;;;;;;;35.85;6.85;;;-1.60;99.90;;;;;;2078913;28;20021;-80
2023/02/27 05:45:31;;;;;;;22.67;6.10;;;-1.60;99.90;;;;;;2074479;28;20034;-83
2023/02/27 05:46:40;;;;;;;17.05;5.80;;;-1.70;99.90;;;;;;2078988;28;20476;-82
2023/02/27 05:47:47;;;;;;;11.52;5.72;;;-1.60;99.90;;;;;;2087092;28;20067;-83
2023/02/27 05:49:01;;;;;;;13.32;5.53;;;-1.70;99.90;;;;;;2084180;28;20406;-84
2023/02/27 05:50:14;;;;;;;11.57;5.47;;;-1.70;99.90;;;;;;2069597;28;20440;-83
2023/02/27 05:51:16;;;;;;;12.48;5.28;;;-1.70;99.90;;;;;;2075301;28;20045;-83
2023/02/27 05:52:22;;;;;;;14.07;5.82;;;-1.70;99.90;;;;;;2072596;28;20315;-82
2023/02/27 05:53:29;;;;;;;33.03;6.95;;;-1.70;99.90;;;;;;2071965;28;20384;-82
2023/02/27 05:54:47;;;;;;;21.80;6.22;;;-1.60;99.90;;;;;;2072283;28;20032;-82